createdAt,value
2023-05-25T00:00:19.020Z,10.60
2023-05-25T00:02:46.533Z,9.60
2023-05-25T00:05:14.379Z,8.38
2023-05-25T00:07:41.370Z,8.98
2023-05-25T00:10:09.146Z,9.10
2023-05-25T00:12:37.711Z,8.38
2023-05-25T00:15:08.029Z,8.40
2023-05-25T00:17:37.282Z,8.02
2023-05-25T00:20:07.906Z,9.40
2023-05-25T00:22:38.647Z,9.60
2023-05-25T00:25:06.874Z,12.32
2023-05-25T00:27:33.594Z,9.68
2023-05-25T00:30:00.488Z,9.73
2023-05-25T00:32:27.722Z,8.38
2023-05-25T00:34:55.378Z,10.05
2023-05-25T00:37:22.429Z,9.18
2023-05-25T00:39:49.874Z,9.25
2023-05-25T00:42:16.593Z,8.88
2023-05-25T00:44:43.842Z,11.13
2023-05-25T00:47:11.858Z,10.70
2023-05-25T00:49:38.681Z,11.25
2023-05-25T00:52:06.117Z,11.93
2023-05-25T00:54:33.622Z,9.77
2023-05-25T00:57:06.108Z,11.48
2023-05-25T00:59:46.490Z,11.25
2023-05-25T01:02:17.250Z,12.45
2023-05-25T01:04:59.835Z,11.30
2023-05-25T01:07:31.015Z,11.32
2023-05-25T01:10:01.629Z,10.82
2023-05-25T01:12:37.179Z,10.18
2023-05-25T01:15:05.905Z,10.57
2023-05-25T01:17:33.194Z,11.50
2023-05-25T01:20:09.851Z,11.35
2023-05-25T01:22:59.805Z,9.98
2023-05-25T01:25:40.690Z,11.95
2023-05-25T01:28:15.386Z,12.05
2023-05-25T01:30:45.847Z,11.00
2023-05-25T01:33:14.182Z,10.48
2023-05-25T01:35:42.193Z,11.63
2023-05-25T01:38:09.983Z,10.18
2023-05-25T01:40:36.822Z,12.18
2023-05-25T01:43:04.387Z,10.95
2023-05-25T01:45:34.241Z,11.35
2023-05-25T01:48:26.260Z,11.27
2023-05-25T01:51:33.248Z,12.50
2023-05-25T01:54:17.990Z,10.98
2023-05-25T01:56:46.873Z,11.52
2023-05-25T01:59:16.464Z,12.50
2023-05-25T02:03:10.148Z,11.25
2023-05-25T02:05:37.832Z,13.50
2023-05-25T02:08:06.721Z,11.43
2023-05-25T02:10:33.487Z,14.15
2023-05-25T02:13:00.245Z,11.10
2023-05-25T02:15:32.892Z,14.63
2023-05-25T02:18:00.801Z,12.45
2023-05-25T02:20:30.748Z,11.77
2023-05-25T02:22:57.686Z,13.55
2023-05-25T02:25:24.430Z,9.88
2023-05-25T02:27:51.164Z,12.10
2023-05-25T02:30:18.096Z,10.27
2023-05-25T02:32:44.917Z,11.85
2023-05-25T02:35:12.466Z,11.77
2023-05-25T02:37:39.508Z,12.05
2023-05-25T02:40:09.520Z,11.20
2023-05-25T02:42:36.404Z,11.20
2023-05-25T02:45:06.439Z,12.45
2023-05-25T02:47:34.456Z,11.55
2023-05-25T02:50:01.676Z,11.77
2023-05-25T02:52:30.533Z,11.75
2023-05-25T02:54:58.293Z,12.98
2023-05-25T02:57:31.632Z,11.98
2023-05-25T02:59:59.610Z,13.30
2023-05-25T03:02:26.823Z,11.77
2023-05-25T03:04:53.900Z,11.95
2023-05-25T03:07:21.376Z,14.27
2023-05-25T03:09:48.330Z,13.40
2023-05-25T03:12:15.558Z,13.15
2023-05-25T03:14:42.508Z,13.57
2023-05-25T03:17:10.421Z,11.68
2023-05-25T03:19:37.372Z,12.35
2023-05-25T03:22:04.367Z,12.85
2023-05-25T03:24:32.613Z,14.60
2023-05-25T03:27:02.044Z,13.50
2023-05-25T03:29:28.769Z,13.02
2023-05-25T03:31:55.628Z,12.85
2023-05-25T03:34:26.236Z,12.57
2023-05-25T03:36:53.451Z,13.88
2023-05-25T03:39:22.140Z,12.82
2023-05-25T03:41:51.149Z,13.00
2023-05-25T03:44:18.186Z,12.90
2023-05-25T03:46:45.036Z,11.38
2023-05-25T03:49:14.080Z,12.40
2023-05-25T03:51:42.779Z,13.40
2023-05-25T03:54:09.754Z,12.30
2023-05-25T03:56:36.529Z,12.07
2023-05-25T03:59:05.265Z,13.00
2023-05-25T04:01:32.077Z,13.10
2023-05-25T04:03:59.025Z,12.20
2023-05-25T04:06:25.883Z,11.68
2023-05-25T04:08:53.110Z,12.63
2023-05-25T04:11:21.102Z,13.07
2023-05-25T04:13:48.076Z,13.95
2023-05-25T04:16:15.025Z,13.40
2023-05-25T04:18:42.063Z,14.20
2023-05-25T04:21:09.344Z,14.07
2023-05-25T04:23:36.075Z,13.23
2023-05-25T04:26:05.989Z,13.23
2023-05-25T04:28:32.821Z,13.30
2023-05-25T04:31:09.838Z,12.65
2023-05-25T04:33:48.180Z,12.50
2023-05-25T04:36:21.210Z,12.10
2023-05-25T04:38:52.161Z,11.65
2023-05-25T04:41:19.308Z,11.57
2023-05-25T04:44:05.702Z,11.90
2023-05-25T04:46:38.996Z,10.73
2023-05-25T04:49:08.649Z,10.30
2023-05-25T04:51:37.107Z,9.88
2023-05-25T04:54:06.017Z,9.90
2023-05-25T04:56:33.426Z,9.02
2023-05-25T04:59:00.516Z,9.93
2023-05-25T05:01:29.221Z,8.93
2023-05-25T05:03:59.361Z,9.48
2023-05-25T05:06:26.233Z,9.65
2023-05-25T05:08:53.221Z,8.63
2023-05-25T05:11:20.523Z,9.55
2023-05-25T05:13:47.509Z,8.77
2023-05-25T05:16:14.328Z,7.43
2023-05-25T05:18:41.292Z,8.73
2023-05-25T05:21:08.095Z,8.75
2023-05-25T05:23:36.496Z,8.07
2023-05-25T05:26:04.962Z,8.05
2023-05-25T05:28:31.939Z,8.75
2023-05-25T05:30:59.035Z,8.38
2023-05-25T05:33:26.296Z,7.85
2023-05-25T05:35:53.457Z,8.65
2023-05-25T05:38:22.015Z,8.43
2023-05-25T05:40:48.826Z,9.27
2023-05-25T05:43:20.368Z,8.30
2023-05-25T05:45:47.626Z,8.32
2023-05-25T05:48:14.640Z,8.93
2023-05-25T05:50:42.467Z,8.73
2023-05-25T05:53:11.009Z,8.55
2023-05-25T05:55:38.012Z,8.63
2023-05-25T05:58:04.855Z,7.82
2023-05-25T06:00:32.096Z,7.88
2023-05-25T06:03:00.898Z,8.00
2023-05-25T06:05:29.424Z,8.75
2023-05-25T06:07:57.418Z,8.77
2023-05-25T06:10:24.232Z,8.60
2023-05-25T06:12:52.742Z,7.75
2023-05-25T06:15:19.788Z,7.97
2023-05-25T06:17:48.263Z,7.40
2023-05-25T06:20:16.266Z,7.80
2023-05-25T06:22:43.175Z,8.18
2023-05-25T06:25:10.762Z,7.50
2023-05-25T06:27:38.320Z,8.05
2023-05-25T06:30:06.273Z,8.02
2023-05-25T06:32:33.171Z,8.05
2023-05-25T06:35:00.207Z,8.43
2023-05-25T06:37:35.099Z,7.53
2023-05-25T06:40:03.508Z,7.45
2023-05-25T06:42:30.724Z,9.02
2023-05-25T06:44:57.653Z,8.43
2023-05-25T06:47:26.031Z,7.97
2023-05-25T06:49:52.832Z,8.13
2023-05-25T06:52:19.573Z,7.53
2023-05-25T06:54:46.448Z,7.75
2023-05-25T06:57:13.275Z,7.28
2023-05-25T06:59:40.090Z,6.82
2023-05-25T07:02:06.908Z,7.30
2023-05-25T07:04:34.688Z,7.45
2023-05-25T07:07:01.636Z,7.35
2023-05-25T07:09:28.463Z,7.93
2023-05-25T07:11:55.430Z,7.68
2023-05-25T07:14:22.292Z,7.40
2023-05-25T07:16:49.056Z,7.50
2023-05-25T07:19:15.955Z,7.13
2023-05-25T07:21:42.714Z,7.82
2023-05-25T07:24:09.550Z,7.80
2023-05-25T07:26:36.513Z,7.55
2023-05-25T07:29:03.453Z,6.75
2023-05-25T07:31:30.303Z,7.68
2023-05-25T07:33:57.060Z,7.15
2023-05-25T07:36:25.005Z,6.55
2023-05-25T07:38:52.719Z,6.82
2023-05-25T07:41:19.568Z,7.32
2023-05-25T07:43:46.388Z,6.93
2023-05-25T07:46:13.137Z,6.35
2023-05-25T07:48:39.923Z,7.50
2023-05-25T07:51:07.144Z,6.63
2023-05-25T07:53:33.863Z,6.63
2023-05-25T07:56:00.859Z,6.38
2023-05-25T07:58:27.572Z,7.50
2023-05-25T08:00:54.437Z,6.82
2023-05-25T08:03:31.862Z,6.75
2023-05-25T08:06:07.436Z,6.68
2023-05-25T08:08:34.890Z,7.15
2023-05-25T08:11:01.729Z,6.50
2023-05-25T08:13:28.634Z,6.60
2023-05-25T08:15:55.516Z,6.28
2023-05-25T08:18:22.444Z,5.93
2023-05-25T08:20:49.276Z,5.63
2023-05-25T08:23:16.070Z,6.68
2023-05-25T08:25:42.885Z,6.30
2023-05-25T08:28:09.737Z,6.65
2023-05-25T08:30:36.785Z,5.60
2023-05-25T08:33:03.922Z,6.00
2023-05-25T08:35:30.738Z,5.18
2023-05-25T08:37:57.430Z,4.88
2023-05-25T08:40:28.246Z,5.68
2023-05-25T08:42:55.036Z,4.80
2023-05-25T08:45:34.083Z,6.15
2023-05-25T08:48:04.465Z,5.20
2023-05-25T08:50:33.288Z,5.70
2023-05-25T08:53:03.272Z,5.47
2023-05-25T08:55:35.869Z,5.55
2023-05-25T08:58:32.623Z,5.20
2023-05-25T09:01:08.058Z,4.93
2023-05-25T09:03:36.293Z,5.10
2023-05-25T09:06:03.322Z,4.10
2023-05-25T09:08:30.849Z,4.43
2023-05-25T09:10:58.351Z,4.55
2023-05-25T09:13:25.135Z,4.28
2023-05-25T09:15:53.094Z,4.88
2023-05-25T09:18:20.185Z,4.40
2023-05-25T09:20:47.866Z,4.13
2023-05-25T09:23:15.991Z,3.38
2023-05-25T09:25:44.374Z,4.15
2023-05-25T09:30:40.772Z,3.67
2023-05-25T09:33:14.649Z,4.72
2023-05-25T09:35:41.561Z,4.15
2023-05-25T09:38:08.552Z,3.63
2023-05-25T09:40:38.838Z,4.10
2023-05-25T09:43:05.700Z,4.65
2023-05-25T09:45:32.589Z,3.65
2023-05-25T09:47:59.877Z,3.80
2023-05-25T09:50:30.166Z,3.08
2023-05-25T09:53:01.005Z,3.28
2023-05-25T09:55:36.874Z,4.07
2023-05-25T09:58:16.665Z,3.50
2023-05-25T10:00:43.707Z,3.47
2023-05-25T10:03:15.089Z,3.72
2023-05-25T10:05:42.064Z,4.05
2023-05-25T10:08:10.529Z,3.15
2023-05-25T10:10:38.727Z,2.85
2023-05-25T10:13:08.411Z,3.38
2023-05-25T10:15:40.141Z,3.38
2023-05-25T10:18:09.300Z,3.10
2023-05-25T10:20:36.773Z,3.47
2023-05-25T10:23:12.870Z,3.85
2023-05-25T10:25:48.735Z,3.88
2023-05-25T10:28:36.403Z,3.92
2023-05-25T10:31:04.036Z,4.05
2023-05-25T10:33:32.355Z,3.53
2023-05-25T10:36:10.018Z,4.05
2023-05-25T10:38:39.692Z,4.53
2023-05-25T10:41:09.200Z,3.80
2023-05-25T10:43:36.408Z,3.95
2023-05-25T10:46:06.198Z,4.40
2023-05-25T10:48:40.576Z,4.47
2023-05-25T10:51:09.334Z,3.85
2023-05-25T10:53:38.317Z,3.65
2023-05-25T10:56:07.399Z,3.78
2023-05-25T10:58:34.435Z,3.55
2023-05-25T11:01:09.132Z,4.10
2023-05-25T11:03:45.313Z,4.28
2023-05-25T11:06:24.099Z,3.78
2023-05-25T11:08:59.085Z,3.80
2023-05-25T11:11:59.586Z,3.50
2023-05-25T11:14:37.064Z,3.10
2023-05-25T11:17:11.628Z,3.20
2023-05-25T11:19:52.349Z,3.70
2023-05-25T11:22:33.499Z,3.30
2023-05-25T11:25:01.756Z,3.92
2023-05-25T11:27:30.965Z,3.15
2023-05-25T11:30:00.176Z,4.00
2023-05-25T11:32:28.298Z,3.85
2023-05-25T11:34:58.065Z,5.20
2023-05-25T11:37:31.348Z,5.13
2023-05-25T11:39:58.513Z,4.75
2023-05-25T11:42:26.206Z,4.18
2023-05-25T11:44:53.646Z,4.40
2023-05-25T11:47:25.032Z,4.32
2023-05-25T11:49:52.230Z,4.05
2023-05-25T11:52:22.025Z,3.50
2023-05-25T11:54:48.879Z,4.47
2023-05-25T11:57:19.034Z,3.78
2023-05-25T11:59:53.922Z,3.90
2023-05-25T12:02:21.795Z,3.42
2023-05-25T12:05:03.536Z,3.75
2023-05-25T12:07:31.875Z,3.92
2023-05-25T12:10:09.832Z,3.90
2023-05-25T12:12:51.069Z,3.80
2023-05-25T12:15:23.536Z,3.40
2023-05-25T12:17:52.504Z,4.65
2023-05-25T12:20:20.421Z,4.18
2023-05-25T12:22:47.792Z,3.95
2023-05-25T12:25:18.693Z,3.17
2023-05-25T12:27:45.639Z,4.45
2023-05-25T12:30:12.848Z,3.83
2023-05-25T12:33:04.874Z,3.83
2023-05-25T12:35:47.558Z,3.78
2023-05-25T12:38:18.813Z,4.72
2023-05-25T12:40:46.090Z,3.83
2023-05-25T12:43:16.788Z,3.80
2023-05-25T12:45:43.967Z,3.30
2023-05-25T12:48:11.136Z,3.55
2023-05-25T12:50:38.250Z,3.83
2023-05-25T12:53:05.533Z,4.00
2023-05-25T12:55:35.507Z,4.25
2023-05-25T12:58:07.356Z,3.55
2023-05-25T13:00:36.385Z,5.00
2023-05-25T13:03:05.300Z,3.95
2023-05-25T13:05:35.282Z,3.40
2023-05-25T13:08:03.694Z,4.20
2023-05-25T13:10:32.657Z,3.70
2023-05-25T13:13:00.161Z,3.45
2023-05-25T13:15:27.614Z,3.35
2023-05-25T13:17:56.395Z,3.72
2023-05-25T13:20:25.509Z,3.50
2023-05-25T13:22:55.610Z,3.88
2023-05-25T13:25:22.982Z,3.58
2023-05-25T13:27:52.772Z,3.33
2023-05-25T13:30:22.048Z,3.28
2023-05-25T13:32:51.417Z,3.03
2023-05-25T13:35:24.076Z,3.50
2023-05-25T13:37:51.353Z,3.20
2023-05-25T13:40:19.056Z,3.40
2023-05-25T13:42:45.988Z,3.80
2023-05-25T13:45:13.778Z,4.32
2023-05-25T13:47:43.547Z,3.70
2023-05-25T13:50:11.298Z,3.85
2023-05-25T13:52:38.085Z,3.25
2023-05-25T13:55:05.469Z,3.60
2023-05-25T13:57:32.193Z,4.72
2023-05-25T13:59:58.929Z,3.70
2023-05-25T14:02:25.897Z,3.95
2023-05-25T14:04:52.808Z,4.25
2023-05-25T14:07:19.596Z,3.83
2023-05-25T14:09:46.655Z,3.90
2023-05-25T14:12:14.323Z,3.88
2023-05-25T14:14:41.256Z,3.67
2023-05-25T14:17:08.031Z,3.15
2023-05-25T14:19:35.253Z,3.20
2023-05-25T14:22:12.617Z,3.47
2023-05-25T14:24:41.376Z,3.85
2023-05-25T14:27:08.359Z,3.88
2023-05-25T14:29:35.392Z,4.07
2023-05-25T14:32:02.345Z,4.22
2023-05-25T14:34:29.448Z,3.75
2023-05-25T14:36:56.263Z,3.28
2023-05-25T14:39:23.080Z,3.85
2023-05-25T14:41:49.833Z,3.28
2023-05-25T14:44:16.721Z,3.58
2023-05-25T14:46:43.675Z,3.67
2023-05-25T14:49:10.649Z,3.55
2023-05-25T14:51:38.129Z,3.50
2023-05-25T14:54:07.286Z,2.80
2023-05-25T14:56:34.927Z,3.42
2023-05-25T14:59:01.819Z,3.22
2023-05-25T15:01:29.441Z,4.00
2023-05-25T15:03:57.142Z,3.33
2023-05-25T15:06:24.257Z,3.83
2023-05-25T15:08:51.209Z,3.90
2023-05-25T15:11:18.536Z,3.58
2023-05-25T15:13:45.669Z,3.92
2023-05-25T15:16:17.021Z,3.67
2023-05-25T15:18:44.790Z,4.00
2023-05-25T15:21:11.647Z,3.80
2023-05-25T15:23:38.728Z,3.88
2023-05-25T15:26:07.605Z,3.70
2023-05-25T15:28:34.497Z,4.35
2023-05-25T15:31:03.092Z,3.55
2023-05-25T15:33:48.422Z,3.60
2023-05-25T15:36:18.829Z,3.10
2023-05-25T15:38:48.909Z,3.20
2023-05-25T15:41:17.051Z,3.22
2023-05-25T15:43:54.253Z,4.22
2023-05-25T15:46:21.105Z,3.50
2023-05-25T15:48:47.875Z,3.63
2023-05-25T15:51:14.604Z,2.95
2023-05-25T15:53:41.320Z,3.97
2023-05-25T15:56:08.181Z,3.28
2023-05-25T15:58:34.948Z,3.05
2023-05-25T16:01:02.611Z,3.70
2023-05-25T16:03:29.497Z,3.28
2023-05-25T16:05:56.782Z,3.42
2023-05-25T16:08:23.895Z,3.38
2023-05-25T16:10:50.722Z,3.17
2023-05-25T16:13:17.458Z,3.63
2023-05-25T16:15:46.747Z,3.80
2023-05-25T16:18:13.718Z,3.78
2023-05-25T16:20:40.575Z,3.28
2023-05-25T16:23:07.448Z,4.05
2023-05-25T16:25:34.176Z,3.58
2023-05-25T16:28:00.930Z,3.67
2023-05-25T16:30:27.689Z,3.97
2023-05-25T16:32:54.442Z,3.35
2023-05-25T16:35:21.569Z,3.25
2023-05-25T16:37:48.375Z,3.13
2023-05-25T16:40:15.207Z,3.03
2023-05-25T16:42:41.964Z,3.17
2023-05-25T16:45:09.354Z,3.72
2023-05-25T16:47:36.188Z,3.63
2023-05-25T16:50:03.022Z,2.88
2023-05-25T16:52:29.714Z,2.92
2023-05-25T16:54:59.002Z,3.33
2023-05-25T16:57:25.979Z,3.80
2023-05-25T16:59:53.811Z,3.40
2023-05-25T17:02:20.936Z,3.58
2023-05-25T17:04:47.715Z,3.28
2023-05-25T17:07:14.448Z,3.78
2023-05-25T17:09:41.187Z,3.20
2023-05-25T17:12:08.342Z,3.33
2023-05-25T17:14:35.185Z,3.22
2023-05-25T17:17:01.930Z,3.03
2023-05-25T17:19:28.630Z,3.10
2023-05-25T17:21:55.660Z,4.43
2023-05-25T17:24:22.420Z,3.72
2023-05-25T17:26:50.202Z,3.42
2023-05-25T17:29:17.576Z,3.15
2023-05-25T17:31:45.707Z,3.55
2023-05-25T17:34:14.718Z,3.67
2023-05-25T17:36:42.181Z,2.60
2023-05-25T17:39:08.942Z,2.90
2023-05-25T17:41:35.692Z,3.25
2023-05-25T17:44:02.524Z,3.22
2023-05-25T17:46:29.460Z,2.63
2023-05-25T17:48:56.812Z,3.92
2023-05-25T17:51:23.706Z,2.90
2023-05-25T17:53:50.617Z,3.20
2023-05-25T17:56:17.389Z,3.33
2023-05-25T17:58:47.373Z,3.45
2023-05-25T18:01:15.897Z,2.85
2023-05-25T18:03:43.067Z,3.22
2023-05-25T18:06:10.381Z,2.80
2023-05-25T18:08:37.181Z,2.58
2023-05-25T18:11:04.015Z,2.30
2023-05-25T18:13:30.802Z,3.40
2023-05-25T18:15:57.621Z,2.90
2023-05-25T18:18:24.872Z,3.03
2023-05-25T18:20:51.749Z,3.17
2023-05-25T18:23:18.568Z,3.05
2023-05-25T18:25:45.880Z,2.92
2023-05-25T18:28:14.985Z,3.08
2023-05-25T18:30:45.502Z,3.60
2023-05-25T18:33:12.609Z,3.13
2023-05-25T18:35:39.833Z,3.58
2023-05-25T18:38:06.770Z,3.15
2023-05-25T18:40:33.668Z,3.45
2023-05-25T18:43:00.373Z,2.97
2023-05-25T18:45:27.037Z,4.47
2023-05-25T18:47:53.765Z,3.40
2023-05-25T18:50:20.673Z,3.83
2023-05-25T18:52:50.901Z,3.63
2023-05-25T18:55:18.998Z,3.38
2023-05-25T18:57:46.537Z,3.17
2023-05-25T19:00:14.303Z,3.30
2023-05-25T19:02:41.120Z,3.47
2023-05-25T19:05:11.247Z,3.33
2023-05-25T19:07:51.125Z,3.60
2023-05-25T19:10:21.991Z,3.03
2023-05-25T19:12:48.775Z,3.33
2023-05-25T19:15:17.777Z,3.58
2023-05-25T19:17:46.643Z,4.18
2023-05-25T19:20:13.687Z,4.15
2023-05-25T19:22:41.749Z,3.55
2023-05-25T19:25:08.779Z,3.17
2023-05-25T19:27:35.682Z,3.80
2023-05-25T19:30:02.636Z,3.67
2023-05-25T19:32:29.601Z,3.05
2023-05-25T19:34:56.451Z,4.60
2023-05-25T19:37:23.318Z,3.72
2023-05-25T19:39:50.138Z,3.47
2023-05-25T19:42:17.015Z,3.53
2023-05-25T19:44:45.311Z,3.88
2023-05-25T19:47:12.237Z,3.97
2023-05-25T19:49:39.050Z,3.83
2023-05-25T19:52:07.237Z,3.67
2023-05-25T19:54:34.094Z,3.53
2023-05-25T19:57:01.590Z,3.58
2023-05-25T19:59:30.114Z,3.70
2023-05-25T20:01:57.082Z,3.80
2023-05-25T20:04:24.786Z,4.32
2023-05-25T20:06:51.960Z,4.35
2023-05-25T20:09:19.121Z,4.05
2023-05-25T20:11:45.964Z,4.32
2023-05-25T20:14:12.677Z,4.63
2023-05-25T20:16:39.511Z,4.43
2023-05-25T20:19:09.219Z,5.03
2023-05-25T20:21:36.505Z,6.05
2023-05-25T20:24:03.497Z,4.68
2023-05-25T20:26:30.299Z,4.70
2023-05-25T20:28:57.438Z,5.40
2023-05-25T20:31:27.161Z,5.60
2023-05-25T20:33:53.967Z,5.35
2023-05-25T20:36:20.955Z,4.97
2023-05-25T20:38:47.767Z,4.90
2023-05-25T20:41:14.552Z,5.88
2023-05-25T20:43:41.397Z,5.95
2023-05-25T20:46:09.337Z,6.47
2023-05-25T20:48:38.722Z,5.22
2023-05-25T20:51:05.517Z,5.28
2023-05-25T20:53:32.252Z,5.40
2023-05-25T20:55:58.958Z,7.05
2023-05-25T20:58:25.710Z,6.38
2023-05-25T21:00:52.428Z,5.25
2023-05-25T21:03:19.430Z,5.40
2023-05-25T21:05:49.131Z,5.93
2023-05-25T21:08:15.929Z,6.60
2023-05-25T21:10:42.691Z,6.00
2023-05-25T21:13:09.378Z,6.60
2023-05-25T21:15:36.183Z,6.78
2023-05-25T21:18:03.608Z,6.78
2023-05-25T21:20:30.707Z,6.45
2023-05-25T21:22:57.529Z,6.35
2023-05-25T21:25:24.315Z,5.93
2023-05-25T21:27:51.067Z,7.38
2023-05-25T21:30:19.320Z,7.20
2023-05-25T21:32:46.861Z,6.95
2023-05-25T21:35:15.981Z,6.10
2023-05-25T21:37:42.815Z,5.35
2023-05-25T21:40:09.996Z,5.32
2023-05-25T21:42:36.768Z,5.35
2023-05-25T21:45:03.970Z,5.15
2023-05-25T21:47:30.782Z,5.80
2023-05-25T21:49:57.585Z,5.00
2023-05-25T21:52:24.395Z,5.93
2023-05-25T21:54:51.167Z,3.75
2023-05-25T21:57:17.995Z,5.53
2023-05-25T21:59:44.636Z,5.85
2023-05-25T22:02:11.479Z,5.93
2023-05-25T22:04:39.182Z,7.13
2023-05-25T22:07:05.928Z,5.07
2023-05-25T22:09:32.644Z,6.00
2023-05-25T22:11:59.413Z,4.90
2023-05-25T22:14:26.170Z,4.82
2023-05-25T22:16:53.009Z,6.15
2023-05-25T22:19:19.767Z,5.32
2023-05-25T22:21:46.666Z,5.47
2023-05-25T22:24:13.342Z,6.60
2023-05-25T22:26:40.054Z,6.88
2023-05-25T22:29:06.826Z,5.40
2023-05-25T22:31:33.583Z,5.93
2023-05-25T22:34:00.520Z,6.10
2023-05-25T22:36:27.279Z,6.43
2023-05-25T22:38:54.045Z,6.97
2023-05-25T22:41:21.367Z,5.90
2023-05-25T22:43:48.199Z,6.53
2023-05-25T22:46:15.017Z,5.82
2023-05-25T22:48:43.443Z,6.47
2023-05-25T22:51:10.211Z,5.85
2023-05-25T22:53:36.979Z,6.72
2023-05-25T22:56:04.039Z,5.18
2023-05-25T22:58:30.717Z,6.15
2023-05-25T23:00:57.475Z,6.07
2023-05-25T23:03:24.215Z,5.28
2023-05-25T23:05:51.058Z,5.82
2023-05-25T23:08:17.876Z,5.55
2023-05-25T23:10:44.634Z,7.13
2023-05-25T23:13:11.331Z,7.28
2023-05-25T23:15:39.971Z,7.47
2023-05-25T23:18:06.972Z,7.38
2023-05-25T23:20:35.587Z,6.32
2023-05-25T23:23:02.504Z,7.00
2023-05-25T23:25:29.192Z,5.35
2023-05-25T23:27:55.970Z,7.18
2023-05-25T23:30:23.464Z,6.32
2023-05-25T23:32:50.368Z,5.80
2023-05-25T23:35:17.264Z,7.07
2023-05-25T23:37:44.052Z,6.68
2023-05-25T23:40:11.991Z,6.25
2023-05-25T23:42:40.158Z,6.47
2023-05-25T23:45:08.273Z,7.63
2023-05-25T23:47:35.184Z,6.00
2023-05-25T23:50:02.337Z,6.47
2023-05-25T23:52:29.131Z,6.00
2023-05-25T23:54:55.838Z,4.88
2023-05-25T23:57:22.568Z,6.03
2023-05-25T23:59:49.264Z,5.90
